Time;durP1;ratioP1;P1;durP2;ratioP2;P2;SDS_P1;SDS_P2;PMS_P1;PMS_P2;Temp;Humidity;BMP_temperature;BMP_pressure;BME280_temperature;BME280_humidity;BME280_pressure;Samples;Min_cycle;Max_cycle;Signal;HPM_P1;HPM_P2
2024/01/11 00:01:45;;;;;;;10.18;6.75;;;16.60;34.30;;;;;;5150589;27;45189;-71
2024/01/11 00:04:12;;;;;;;12.55;7.25;;;16.60;34.90;;;;;;5150412;27;45360;-71
2024/01/11 00:06:43;;;;;;;13.60;7.72;;;16.60;35.20;;;;;;5150067;27;45531;-71
2024/01/11 00:09:10;;;;;;;13.60;7.60;;;16.60;35.40;;;;;;5150165;27;45370;-71
2024/01/11 00:11:37;;;;;;;10.57;7.43;;;16.60;35.40;;;;;;5150331;27;45305;-71
2024/01/11 00:14:03;;;;;;;12.10;7.30;;;16.50;35.40;;;;;;5150163;27;45324;-72
2024/01/11 00:16:30;;;;;;;10.77;7.22;;;16.60;35.30;;;;;;5149983;27;46404;-71
2024/01/11 00:18:57;;;;;;;12.35;7.32;;;16.50;35.20;;;;;;5149937;27;45198;-71
2024/01/11 00:21:24;;;;;;;11.20;7.47;;;16.50;35.20;;;;;;5150107;27;45315;-71
2024/01/11 00:23:53;;;;;;;11.10;7.25;;;16.50;35.10;;;;;;5149884;27;45428;-70
2024/01/11 00:26:20;;;;;;;7.95;6.82;;;16.50;35.10;;;;;;5149122;27;45485;-71
2024/01/11 00:28:46;;;;;;;10.10;6.90;;;16.50;35.10;;;;;;5149846;27;45251;-71
2024/01/11 00:31:13;;;;;;;10.80;7.18;;;16.50;35.10;;;;;;5149243;27;45320;-71
2024/01/11 00:33:40;;;;;;;12.32;7.45;;;16.40;35.00;;;;;;5149439;27;45319;-71
2024/01/11 00:36:07;;;;;;;8.70;7.00;;;16.50;34.90;;;;;;5149598;27;47677;-71
2024/01/11 00:38:34;;;;;;;10.68;7.05;;;16.50;34.90;;;;;;5149692;27;45373;-71
2024/01/11 00:41:02;;;;;;;10.90;7.97;;;16.40;34.90;;;;;;5149459;27;45255;-71
2024/01/11 00:43:29;;;;;;;12.07;7.70;;;16.40;34.90;;;;;;5149856;27;45460;-71
2024/01/11 00:45:56;;;;;;;9.85;6.43;;;16.40;34.90;;;;;;5149444;27;45243;-73
2024/01/11 00:48:23;;;;;;;12.18;6.93;;;16.40;34.90;;;;;;5149624;27;45390;-70
2024/01/11 00:50:49;;;;;;;9.85;7.18;;;16.30;34.80;;;;;;5149998;27;45315;-70
2024/01/11 00:53:16;;;;;;;10.48;7.35;;;16.30;34.80;;;;;;5149497;27;45483;-71
2024/01/11 00:55:43;;;;;;;10.15;6.60;;;16.30;34.70;;;;;;5149313;27;46242;-71
2024/01/11 00:58:11;;;;;;;10.75;7.13;;;16.30;34.70;;;;;;5149361;27;45312;-70
2024/01/11 01:00:38;;;;;;;10.70;7.15;;;16.30;34.70;;;;;;5149729;27;45410;-70
2024/01/11 01:03:05;;;;;;;12.80;7.38;;;16.30;34.70;;;;;;5149546;27;45316;-70
2024/01/11 01:05:32;;;;;;;10.25;7.00;;;16.30;34.70;;;;;;5149499;27;47255;-70
2024/01/11 01:07:59;;;;;;;12.32;9.00;;;16.20;34.60;;;;;;5148384;27;45373;-71
2024/01/11 01:10:25;;;;;;;10.77;8.57;;;16.30;34.70;;;;;;5149354;27;45415;-70
2024/01/11 01:12:52;;;;;;;12.13;8.38;;;16.20;34.60;;;;;;5149596;27;45381;-70
2024/01/11 01:15:20;;;;;;;8.95;6.97;;;16.20;34.50;;;;;;5149193;27;45243;-70
2024/01/11 01:17:47;;;;;;;11.07;8.60;;;16.20;34.50;;;;;;5148972;27;45347;-70
2024/01/11 01:20:14;;;;;;;11.20;7.22;;;16.20;34.60;;;;;;5149277;27;45307;-71
2024/01/11 01:22:41;;;;;;;10.60;6.88;;;16.20;34.60;;;;;;5149341;27;45456;-71
2024/01/11 01:25:08;;;;;;;12.57;7.63;;;16.10;34.40;;;;;;5148859;27;46670;-71
2024/01/11 01:27:35;;;;;;;10.98;7.03;;;16.10;34.50;;;;;;5149091;27;45262;-71
2024/01/11 01:30:02;;;;;;;9.95;6.97;;;16.20;34.50;;;;;;5149120;27;45322;-70
2024/01/11 01:32:31;;;;;;;9.30;7.15;;;16.20;34.40;;;;;;5148820;27;45598;-71
2024/01/11 01:34:58;;;;;;;11.18;7.60;;;16.20;34.40;;;;;;5148624;27;45792;-71
2024/01/11 01:37:25;;;;;;;9.80;7.80;;;16.10;35.00;;;;;;5148945;27;45259;-70
2024/01/11 01:39:51;;;;;;;11.48;8.57;;;16.10;35.00;;;;;;5148829;27;45302;-70
2024/01/11 01:42:18;;;;;;;11.73;8.77;;;16.10;34.40;;;;;;5148727;27;45354;-70
2024/01/11 01:44:45;;;;;;;10.23;8.50;;;16.00;34.40;;;;;;5148304;27;45565;-70
2024/01/11 01:47:12;;;;;;;11.82;7.45;;;16.00;34.40;;;;;;5148759;27;45296;-70
2024/01/11 01:49:40;;;;;;;10.95;6.95;;;16.00;34.40;;;;;;5148463;27;45393;-68
2024/01/11 01:52:07;;;;;;;9.82;6.82;;;16.00;34.30;;;;;;5148141;27;45421;-70
2024/01/11 01:54:34;;;;;;;11.45;8.20;;;16.00;34.30;;;;;;5148385;27;45445;-70
2024/01/11 01:57:01;;;;;;;9.60;7.80;;;16.00;34.30;;;;;;5148481;27;45354;-70
2024/01/11 01:59:27;;;;;;;9.18;6.70;;;16.00;34.30;;;;;;5148847;27;45323;-71
2024/01/11 02:01:54;;;;;;;10.73;7.55;;;16.00;34.20;;;;;;5148767;27;45370;-70
2024/01/11 02:04:24;;;;;;;11.43;7.45;;;16.00;34.30;;;;;;5148418;27;45309;-71
2024/01/11 02:06:52;;;;;;;11.68;6.57;;;15.90;34.20;;;;;;5148359;27;45299;-71
2024/01/11 02:09:19;;;;;;;8.07;5.95;;;15.90;34.20;;;;;;5148585;27;45381;-71
2024/01/11 02:11:46;;;;;;;10.05;6.50;;;15.90;34.30;;;;;;5148625;27;45475;-71
2024/01/11 02:14:13;;;;;;;9.85;6.88;;;15.90;34.20;;;;;;5148165;27;45564;-70
2024/01/11 02:16:40;;;;;;;9.82;7.50;;;15.90;34.30;;;;;;5148372;27;45401;-70
2024/01/11 02:19:07;;;;;;;10.07;6.68;;;15.90;34.20;;;;;;5148398;27;45338;-70
2024/01/11 02:21:33;;;;;;;10.32;6.88;;;15.90;34.20;;;;;;5148665;27;45344;-70
2024/01/11 02:24:06;;;;;;;11.77;7.03;;;15.90;34.20;;;;;;5148002;27;46508;-70
2024/01/11 02:26:33;;;;;;;8.93;7.53;;;15.90;34.20;;;;;;5148225;27;45407;-70
2024/01/11 02:29:00;;;;;;;10.40;6.60;;;15.80;34.20;;;;;;5148185;27;45408;-70
2024/01/11 02:31:27;;;;;;;8.52;5.85;;;15.80;34.10;;;;;;5148451;27;45373;-70
2024/01/11 02:33:54;;;;;;;10.40;8.02;;;15.80;34.10;;;;;;5147709;27;46404;-70
2024/01/11 02:36:21;;;;;;;10.20;6.85;;;15.80;34.00;;;;;;5147284;27;45304;-70
2024/01/11 02:38:48;;;;;;;10.90;7.35;;;15.80;34.10;;;;;;5148014;27;45346;-70
2024/01/11 02:41:17;;;;;;;9.70;6.45;;;15.80;34.00;;;;;;5147933;27;45403;-70
2024/01/11 02:43:47;;;;;;;10.77;6.88;;;15.80;34.00;;;;;;5147659;27;46369;-70
2024/01/11 02:46:14;;;;;;;9.27;6.45;;;15.80;34.00;;;;;;5147979;27;45349;-70
2024/01/11 02:48:41;;;;;;;8.05;5.93;;;15.80;34.00;;;;;;5148073;27;45310;-70
2024/01/11 02:51:08;;;;;;;8.75;6.28;;;15.80;34.00;;;;;;5148407;27;45304;-70
2024/01/11 02:53:35;;;;;;;10.02;6.43;;;15.80;34.00;;;;;;5147536;27;47572;-70
2024/01/11 02:56:01;;;;;;;8.60;6.88;;;15.70;34.00;;;;;;5149744;27;45354;-70
2024/01/11 02:58:30;;;;;;;11.88;7.82;;;15.80;34.00;;;;;;5151536;27;45380;-70
2024/01/11 03:00:56;;;;;;;10.68;8.23;;;15.70;33.90;;;;;;5151631;27;45340;-70
2024/01/11 03:03:23;;;;;;;9.40;7.50;;;15.70;34.00;;;;;;5151243;27;46391;-70
2024/01/11 03:05:50;;;;;;;11.50;8.30;;;15.70;34.00;;;;;;5151228;27;45251;-70
2024/01/11 03:08:17;;;;;;;12.00;7.88;;;15.70;34.00;;;;;;5151362;27;45385;-71
2024/01/11 03:10:44;;;;;;;9.65;7.10;;;15.60;33.90;;;;;;5151375;27;45466;-70
2024/01/11 03:13:10;;;;;;;10.52;7.80;;;15.70;34.00;;;;;;5150940;27;46736;-70
2024/01/11 03:15:38;;;;;;;9.73;7.80;;;15.70;34.00;;;;;;5151185;27;45263;-70
2024/01/11 03:18:05;;;;;;;10.90;7.53;;;15.60;33.90;;;;;;5150964;27;45138;-71
2024/01/11 03:20:32;;;;;;;11.80;7.85;;;15.60;33.80;;;;;;5150574;27;45334;-70
2024/01/11 03:22:59;;;;;;;10.25;7.95;;;15.60;33.80;;;;;;5150937;27;46327;-70
2024/01/11 03:25:26;;;;;;;9.35;7.43;;;15.60;34.50;;;;;;5150890;27;45307;-71
2024/01/11 03:27:53;;;;;;;9.82;7.45;;;15.60;33.90;;;;;;5151088;27;45305;-71
2024/01/11 03:30:19;;;;;;;9.30;6.80;;;15.60;33.90;;;;;;5151470;27;45401;-70
2024/01/11 03:32:48;;;;;;;8.63;5.88;;;15.60;33.90;;;;;;5150769;27;45313;-70
2024/01/11 03:35:15;;;;;;;9.57;7.95;;;15.60;33.80;;;;;;5150788;27;45392;-71
2024/01/11 03:37:41;;;;;;;11.18;8.38;;;15.60;33.80;;;;;;5150996;27;45371;-70
2024/01/11 03:40:09;;;;;;;10.35;7.20;;;15.60;33.80;;;;;;5151117;27;45218;-70
2024/01/11 03:42:35;;;;;;;9.02;7.45;;;15.60;33.80;;;;;;5150246;27;45861;-70
2024/01/11 03:45:03;;;;;;;11.48;8.07;;;15.50;33.70;;;;;;5150695;27;45350;-70
2024/01/11 03:47:29;;;;;;;10.60;8.43;;;15.50;33.70;;;;;;5150693;27;45452;-70
2024/01/11 03:49:58;;;;;;;10.10;7.53;;;15.50;33.70;;;;;;5150769;27;45381;-70
2024/01/11 03:52:24;;;;;;;9.25;7.65;;;15.50;33.80;;;;;;5150610;27;46355;-70
2024/01/11 03:54:51;;;;;;;11.00;8.15;;;15.50;34.40;;;;;;5150653;27;45173;-70
2024/01/11 03:57:18;;;;;;;8.70;7.20;;;15.50;33.80;;;;;;5150839;27;45634;-70
2024/01/11 03:59:45;;;;;;;10.68;7.40;;;15.50;33.70;;;;;;5150774;27;45308;-70
2024/01/11 04:02:12;;;;;;;8.75;7.85;;;15.50;33.70;;;;;;5149376;27;45511;-71
2024/01/11 04:04:39;;;;;;;8.63;7.28;;;15.50;33.70;;;;;;5150104;27;45208;-70
2024/01/11 04:07:08;;;;;;;9.20;7.93;;;15.40;33.70;;;;;;5150200;27;45240;-71
2024/01/11 04:09:37;;;;;;;8.35;6.72;;;15.40;33.60;;;;;;5150618;27;45365;-71
2024/01/11 04:12:04;;;;;;;9.95;7.43;;;15.50;33.70;;;;;;5150115;27;47286;-71
2024/01/11 04:14:32;;;;;;;8.30;5.93;;;15.50;33.60;;;;;;5150032;27;45177;-70
2024/01/11 04:16:58;;;;;;;8.73;7.07;;;15.50;33.50;;;;;;5150300;27;45327;-70
2024/01/11 04:19:25;;;;;;;8.35;5.97;;;15.60;33.40;;;;;;5150484;27;45468;-70
2024/01/11 04:21:52;;;;;;;9.45;5.97;;;15.60;33.30;;;;;;5149975;27;46405;-70
2024/01/11 04:24:20;;;;;;;10.60;6.40;;;15.70;33.20;;;;;;5147198;27;45284;-70
2024/01/11 04:26:47;;;;;;;8.90;7.07;;;15.80;33.00;;;;;;5150452;27;45368;-70
2024/01/11 04:29:14;;;;;;;8.02;5.80;;;15.90;32.90;;;;;;5150424;27;45395;-71
2024/01/11 04:31:40;;;;;;;11.10;7.53;;;16.00;32.70;;;;;;5149796;27;45305;-70
2024/01/11 04:34:12;;;;;;;9.98;7.43;;;16.10;32.50;;;;;;5149636;27;45401;-70
2024/01/11 04:36:39;;;;;;;9.05;6.38;;;16.20;32.30;;;;;;5149938;27;45271;-70
2024/01/11 04:39:07;;;;;;;9.55;7.47;;;16.30;32.10;;;;;;5149892;27;45407;-71
2024/01/11 04:41:36;;;;;;;8.50;5.53;;;16.40;32.00;;;;;;5149359;27;45256;-70
2024/01/11 04:44:03;;;;;;;8.30;5.82;;;16.50;31.80;;;;;;5149444;27;45396;-70
2024/01/11 04:46:30;;;;;;;8.50;6.05;;;16.60;31.60;;;;;;5149507;27;45387;-69
2024/01/11 04:48:57;;;;;;;10.20;6.63;;;16.70;31.50;;;;;;5149191;27;45409;-71
2024/01/11 04:51:23;;;;;;;8.88;6.00;;;16.80;31.40;;;;;;5149436;27;47564;-71
2024/01/11 04:53:50;;;;;;;8.57;5.88;;;16.90;31.30;;;;;;5149335;27;45249;-71
2024/01/11 04:56:17;;;;;;;9.02;6.28;;;16.90;31.20;;;;;;5149915;27;45558;-71
2024/01/11 04:58:46;;;;;;;8.57;5.70;;;17.00;31.10;;;;;;5149857;27;45336;-71
2024/01/11 05:01:13;;;;;;;10.73;6.38;;;17.00;31.00;;;;;;5149363;27;45386;-71
2024/01/11 05:03:39;;;;;;;10.50;6.60;;;17.10;30.90;;;;;;5149441;27;45317;-70
2024/01/11 05:06:07;;;;;;;9.93;5.75;;;17.20;30.80;;;;;;5149555;27;45321;-71
2024/01/11 05:08:33;;;;;;;5.70;5.10;;;17.20;30.80;;;;;;5149709;27;45419;-71
2024/01/11 05:11:00;;;;;;;8.88;6.25;;;17.20;30.70;;;;;;5149165;27;46398;-71
2024/01/11 05:13:27;;;;;;;10.18;5.72;;;17.30;30.60;;;;;;5148922;27;45410;-71
2024/01/11 05:15:55;;;;;;;8.68;6.07;;;17.30;30.50;;;;;;5149254;27;45288;-71
2024/01/11 05:18:22;;;;;;;9.38;6.00;;;17.40;30.50;;;;;;5149664;27;45199;-70
2024/01/11 05:20:49;;;;;;;10.68;5.72;;;17.40;30.40;;;;;;5149069;27;46339;-71
2024/01/11 05:23:16;;;;;;;8.73;6.03;;;17.40;30.30;;;;;;5149421;27;45372;-71
2024/01/11 05:25:42;;;;;;;6.57;5.40;;;17.50;30.30;;;;;;5149530;27;45355;-71
2024/01/11 05:28:09;;;;;;;8.00;5.50;;;17.50;30.30;;;;;;5149034;27;45215;-69
2024/01/11 05:30:36;;;;;;;8.88;5.65;;;17.60;30.20;;;;;;5147950;27;46389;-71
2024/01/11 05:33:05;;;;;;;7.15;5.43;;;17.60;30.10;;;;;;5148740;27;45284;-71
2024/01/11 05:35:32;;;;;;;9.38;6.00;;;17.60;30.00;;;;;;5148999;27;45362;-71
2024/01/11 05:37:59;;;;;;;8.02;5.50;;;17.60;30.00;;;;;;5149364;27;45296;-71
2024/01/11 05:40:27;;;;;;;8.43;5.82;;;17.70;30.00;;;;;;5148852;27;45596;-71
2024/01/11 05:42:54;;;;;;;8.60;5.70;;;17.70;30.00;;;;;;5148639;27;45383;-71
2024/01/11 05:45:21;;;;;;;7.82;5.20;;;17.70;30.00;;;;;;5148783;27;45331;-71
2024/01/11 05:47:48;;;;;;;8.40;5.70;;;17.70;29.90;;;;;;5149029;27;45332;-70
2024/01/11 05:50:16;;;;;;;7.97;5.60;;;17.80;29.90;;;;;;5148509;27;46738;-70
2024/01/11 05:52:43;;;;;;;7.18;5.40;;;17.80;29.90;;;;;;5148401;27;45363;-69
2024/01/11 05:55:10;;;;;;;9.07;5.53;;;17.80;29.80;;;;;;5148570;27;45375;-70
2024/01/11 05:57:37;;;;;;;9.38;5.38;;;17.80;29.90;;;;;;5148917;27;45357;-70
2024/01/11 06:00:05;;;;;;;7.10;5.07;;;17.90;29.80;;;;;;5148212;27;46450;-70
2024/01/11 06:02:32;;;;;;;9.95;5.57;;;17.90;29.80;;;;;;5148337;27;45191;-70
2024/01/11 06:04:59;;;;;;;8.82;5.97;;;17.90;29.70;;;;;;5148665;27;45298;-70
2024/01/11 06:07:28;;;;;;;9.13;5.90;;;17.90;29.70;;;;;;5148788;27;45429;-70
2024/01/11 06:09:54;;;;;;;6.90;5.20;;;17.90;29.60;;;;;;5148306;27;45245;-69
2024/01/11 06:12:21;;;;;;;7.72;5.78;;;18.00;29.70;;;;;;5148578;27;45202;-72
2024/01/11 06:14:48;;;;;;;10.60;5.75;;;18.00;29.60;;;;;;5147710;27;45259;-70
2024/01/11 06:17:15;;;;;;;7.63;5.50;;;18.00;29.60;;;;;;5148565;27;45371;-71
2024/01/11 06:19:42;;;;;;;7.65;5.55;;;18.00;29.60;;;;;;5148170;27;46631;-71
2024/01/11 06:22:09;;;;;;;7.07;5.28;;;18.00;29.60;;;;;;5148408;27;45340;-71
2024/01/11 06:24:37;;;;;;;10.48;5.43;;;18.00;29.50;;;;;;5148211;27;45264;-71
2024/01/11 06:27:04;;;;;;;8.02;6.10;;;18.00;29.60;;;;;;5145920;27;45321;-71
2024/01/11 06:29:31;;;;;;;7.50;5.15;;;18.00;29.50;;;;;;5149350;27;46396;-71
2024/01/11 06:31:57;;;;;;;7.05;5.35;;;18.10;29.50;;;;;;5153457;27;45420;-71
2024/01/11 06:34:24;;;;;;;7.68;5.55;;;18.10;29.50;;;;;;5151832;27;45276;-71
2024/01/11 06:36:52;;;;;;;9.05;5.68;;;18.10;29.50;;;;;;5151921;27;45516;-71
2024/01/11 06:39:19;;;;;;;9.57;6.15;;;18.10;29.50;;;;;;5151587;27;45437;-71
2024/01/11 06:41:47;;;;;;;7.25;5.85;;;18.10;29.50;;;;;;5151380;27;45533;-71
2024/01/11 06:44:14;;;;;;;9.38;6.05;;;18.10;29.40;;;;;;5151761;27;45300;-71
2024/01/11 06:46:41;;;;;;;8.60;5.57;;;18.20;29.40;;;;;;5152278;27;45267;-71
2024/01/11 06:49:08;;;;;;;8.02;5.78;;;18.10;29.40;;;;;;5151805;27;45488;-71
2024/01/11 06:51:35;;;;;;;7.47;4.93;;;18.10;29.30;;;;;;5151541;27;45338;-71
2024/01/11 06:54:02;;;;;;;7.32;5.75;;;18.20;29.40;;;;;;5151729;27;45372;-71
2024/01/11 06:56:28;;;;;;;7.20;5.43;;;18.20;29.40;;;;;;5151289;27;45301;-71
2024/01/11 06:58:57;;;;;;;6.88;5.03;;;18.20;29.30;;;;;;5150776;27;45211;-71
2024/01/11 07:01:24;;;;;;;11.55;6.00;;;18.20;29.30;;;;;;5151557;27;45507;-71
2024/01/11 07:03:50;;;;;;;9.25;5.43;;;18.20;29.30;;;;;;5151383;27;45440;-71
2024/01/11 07:06:17;;;;;;;7.82;5.38;;;18.20;29.30;;;;;;5151548;27;45364;-71
2024/01/11 07:08:44;;;;;;;7.80;5.28;;;18.20;29.30;;;;;;5151071;27;46440;-71
2024/01/11 07:11:11;;;;;;;7.22;5.32;;;18.30;29.30;;;;;;5151205;27;45272;-72
2024/01/11 07:13:38;;;;;;;8.32;5.72;;;18.30;29.30;;;;;;5151134;27;45318;-71
2024/01/11 07:16:06;;;;;;;9.00;5.63;;;18.30;29.30;;;;;;5151597;27;45318;-71
2024/01/11 07:18:33;;;;;;;8.52;5.40;;;18.30;29.30;;;;;;5151026;27;45314;-71
2024/01/11 07:21:00;;;;;;;6.38;4.85;;;18.30;29.30;;;;;;5150924;27;45251;-71
2024/01/11 07:23:27;;;;;;;10.35;5.38;;;18.30;29.70;;;;;;5151178;27;45235;-71
2024/01/11 07:25:54;;;;;;;6.55;4.88;;;18.40;29.30;;;;;;5151390;27;45373;-71
2024/01/11 07:28:25;;;;;;;8.75;5.68;;;18.30;29.20;;;;;;5150833;27;45344;-71
2024/01/11 07:30:52;;;;;;;10.80;5.95;;;18.40;29.20;;;;;;5150502;27;45348;-72
2024/01/11 07:33:20;;;;;;;9.43;5.30;;;18.40;29.10;;;;;;5150543;27;45382;-73
2024/01/11 07:35:47;;;;;;;8.80;5.95;;;18.40;29.30;;;;;;5150517;27;45441;-71
2024/01/11 07:38:13;;;;;;;9.35;6.20;;;18.40;29.40;;;;;;5142647;27;46371;-72
2024/01/11 07:40:40;;;;;;;9.32;5.80;;;18.40;29.80;;;;;;5132061;27;45348;-71
2024/01/11 07:43:08;;;;;;;12.30;6.32;;;18.40;29.80;;;;;;5149620;27;45271;-71
2024/01/11 07:45:35;;;;;;;10.32;5.57;;;18.40;29.80;;;;;;5148138;27;45561;-71
2024/01/11 07:48:03;;;;;;;9.10;6.32;;;18.40;29.90;;;;;;5150208;27;45434;-71
2024/01/11 07:50:31;;;;;;;8.63;5.45;;;18.50;29.90;;;;;;5149995;27;45344;-72
2024/01/11 07:52:58;;;;;;;10.35;5.95;;;18.50;29.90;;;;;;5142957;27;45441;-70
2024/01/11 07:55:26;;;;;;;6.95;5.75;;;18.50;29.90;;;;;;5136895;27;45445;-69
2024/01/11 07:57:53;;;;;;;11.90;6.03;;;18.50;29.80;;;;;;5138546;27;46565;-70
2024/01/11 08:00:20;;;;;;;13.52;5.65;;;18.50;29.70;;;;;;5135122;27;45365;-71
2024/01/11 08:02:46;;;;;;;10.50;5.57;;;18.50;29.80;;;;;;5143620;27;45463;-71
2024/01/11 08:05:13;;;;;;;12.68;7.05;;;18.50;29.70;;;;;;5136627;27;45378;-71
2024/01/11 08:07:43;;;;;;;7.75;5.38;;;18.50;29.70;;;;;;5148814;27;45351;-71
2024/01/11 08:10:10;;;;;;;9.18;6.07;;;18.60;29.70;;;;;;5142976;27;45245;-70
2024/01/11 08:12:37;;;;;;;9.40;6.60;;;18.50;29.50;;;;;;5147392;27;45327;-71
2024/01/11 08:15:04;;;;;;;11.57;6.18;;;18.60;29.60;;;;;;5143638;27;45535;-70
2024/01/11 08:17:31;;;;;;;10.95;6.50;;;18.60;29.60;;;;;;5141665;27;46508;-70
2024/01/11 08:19:57;;;;;;;11.48;7.43;;;18.50;29.40;;;;;;5148174;27;45449;-70
2024/01/11 08:22:24;;;;;;;10.52;6.63;;;18.50;29.30;;;;;;5149568;27;45363;-72
2024/01/11 08:24:52;;;;;;;13.63;7.50;;;18.60;29.50;;;;;;5143538;27;45410;-70
2024/01/11 08:27:19;;;;;;;11.25;6.82;;;18.50;29.40;;;;;;5142488;27;45565;-72
2024/01/11 08:29:47;;;;;;;9.98;6.65;;;18.60;30.00;;;;;;5149190;27;45432;-73
2024/01/11 08:32:14;;;;;;;11.27;6.32;;;18.60;29.40;;;;;;5150008;27;45400;-73
2024/01/11 08:34:40;;;;;;;10.23;6.60;;;18.60;29.40;;;;;;5134863;27;45483;-73
2024/01/11 08:37:07;;;;;;;10.45;5.95;;;18.60;29.50;;;;;;5147715;27;46581;-73
2024/01/11 08:39:34;;;;;;;8.82;5.72;;;18.70;29.50;;;;;;5140046;27;45386;-72
2024/01/11 08:42:03;;;;;;;10.88;6.97;;;18.70;29.40;;;;;;5144804;27;45251;-72
2024/01/11 08:44:30;;;;;;;9.02;6.20;;;18.70;29.50;;;;;;5149263;27;45638;-71
2024/01/11 08:46:59;;;;;;;10.95;6.63;;;18.70;29.50;;;;;;5149598;27;48684;-71
2024/01/11 08:49:27;;;;;;;11.57;6.85;;;18.70;29.60;;;;;;5148064;27;45360;-72
2024/01/11 08:51:53;;;;;;;9.25;6.85;;;18.70;29.40;;;;;;5148454;27;45540;-72
2024/01/11 08:54:21;;;;;;;10.88;7.20;;;18.70;29.40;;;;;;5140500;27;45529;-71
2024/01/11 08:56:48;;;;;;;10.15;7.32;;;18.80;29.50;;;;;;5142924;27;50515;-71
2024/01/11 08:59:16;;;;;;;11.27;6.45;;;18.70;29.50;;;;;;5145323;27;44917;-72
2024/01/11 09:01:43;;;;;;;11.20;7.45;;;18.80;29.50;;;;;;5144391;27;45442;-71
2024/01/11 09:04:10;;;;;;;8.80;6.60;;;18.80;29.50;;;;;;5138921;27;45482;-71
2024/01/11 09:06:36;;;;;;;13.07;6.60;;;18.80;29.50;;;;;;5147175;27;45629;-74
2024/01/11 09:09:08;;;;;;;8.35;6.50;;;18.90;29.50;;;;;;5147394;27;45394;-72
2024/01/11 09:11:36;;;;;;;9.05;6.30;;;18.80;29.40;;;;;;5145737;27;45345;-72
2024/01/11 09:14:03;;;;;;;15.38;7.10;;;18.90;30.00;;;;;;5149181;27;45439;-73
2024/01/11 09:16:31;;;;;;;9.68;6.82;;;18.90;29.40;;;;;;5148624;27;45476;-72
2024/01/11 09:19:00;;;;;;;12.68;6.63;;;19.00;29.50;;;;;;5148730;27;45287;-72
2024/01/11 09:21:26;;;;;;;9.20;6.85;;;19.00;29.40;;;;;;5143532;27;45318;-71
2024/01/11 09:23:53;;;;;;;10.52;6.22;;;19.00;29.40;;;;;;5146127;27;45326;-70
2024/01/11 09:26:20;;;;;;;9.55;6.28;;;19.00;29.40;;;;;;5143538;27;45514;-72
2024/01/11 09:28:47;;;;;;;12.20;6.95;;;19.00;29.40;;;;;;5148608;27;45443;-69
2024/01/11 09:31:14;;;;;;;10.73;6.95;;;19.00;29.40;;;;;;5145257;27;45499;-72
2024/01/11 09:33:45;;;;;;;13.32;6.68;;;19.00;29.40;;;;;;5146892;27;45438;-69
2024/01/11 09:36:12;;;;;;;10.52;6.63;;;19.00;29.40;;;;;;5138814;27;46364;-68
2024/01/11 09:38:39;;;;;;;9.80;6.45;;;19.10;29.50;;;;;;5148344;27;45297;-71
2024/01/11 09:41:08;;;;;;;10.88;7.22;;;19.00;29.50;;;;;;5145189;27;45367;-75
2024/01/11 09:43:35;;;;;;;8.90;6.68;;;19.10;29.80;;;;;;5142769;27;45401;-73
2024/01/11 09:46:03;;;;;;;10.45;6.75;;;19.00;30.00;;;;;;5147958;27;45350;-72
2024/01/11 09:48:30;;;;;;;15.82;6.55;;;19.00;30.10;;;;;;5144002;27;45342;-70
2024/01/11 09:50:58;;;;;;;14.73;6.93;;;19.00;30.20;;;;;;5138586;27;45382;-70
2024/01/11 09:53:26;;;;;;;10.80;6.50;;;19.00;30.30;;;;;;5140130;27;45476;-72
2024/01/11 09:55:53;;;;;;;11.95;6.30;;;18.90;30.40;;;;;;5147456;27;46835;-70
2024/01/11 09:58:20;;;;;;;12.23;7.05;;;18.90;30.60;;;;;;5142669;27;44837;-70
2024/01/11 10:00:50;;;;;;;9.55;6.20;;;18.90;30.60;;;;;;5143271;27;45439;-71
2024/01/11 10:03:16;;;;;;;10.32;6.30;;;18.90;30.70;;;;;;5147231;27;45549;-72
2024/01/11 10:05:45;;;;;;;10.40;6.78;;;18.80;30.80;;;;;;5148854;27;45442;-68
2024/01/11 10:08:13;;;;;;;12.93;6.95;;;18.80;30.90;;;;;;5132368;27;45253;-71
2024/01/11 10:10:40;;;;;;;10.95;6.53;;;18.80;31.10;;;;;;5143859;27;45460;-68
2024/01/11 10:13:07;;;;;;;10.75;7.13;;;18.70;31.10;;;;;;5151476;27;45255;-67
2024/01/11 10:15:34;;;;;;;10.30;6.80;;;18.60;31.20;;;;;;5151051;27;45462;-71
2024/01/11 10:18:01;;;;;;;9.57;6.82;;;18.60;31.30;;;;;;5149058;27;45243;-69
2024/01/11 10:20:29;;;;;;;10.70;6.75;;;18.50;31.30;;;;;;5138850;27;45316;-69
2024/01/11 10:22:57;;;;;;;15.60;7.88;;;18.40;31.30;;;;;;5151361;27;45453;-69
2024/01/11 10:25:26;;;;;;;9.82;6.43;;;18.50;31.40;;;;;;5150790;27;45443;-69
2024/01/11 10:27:54;;;;;;;12.90;6.85;;;18.50;32.00;;;;;;5151745;27;45245;-70
2024/01/11 10:30:22;;;;;;;10.27;6.93;;;18.50;31.50;;;;;;5151077;27;45419;-72
2024/01/11 10:32:49;;;;;;;11.85;6.97;;;18.60;31.60;;;;;;5151382;27;45413;-70
2024/01/11 10:35:17;;;;;;;14.60;6.68;;;18.60;31.40;;;;;;5149011;27;45652;-73
2024/01/11 10:37:44;;;;;;;12.30;6.57;;;18.70;31.40;;;;;;5144617;27;45418;-74
2024/01/11 10:40:12;;;;;;;13.38;7.45;;;18.70;31.60;;;;;;5138713;27;45360;-74
2024/01/11 10:42:42;;;;;;;11.77;7.07;;;18.90;31.10;;;;;;5149608;27;45691;-72
2024/01/11 10:45:11;;;;;;;13.95;6.18;;;19.00;31.20;;;;;;5151801;27;45198;-69
2024/01/11 10:47:38;;;;;;;12.70;7.53;;;19.10;31.20;;;;;;5152043;27;45304;-70
2024/01/11 10:50:08;;;;;;;18.15;7.43;;;19.20;30.90;;;;;;5151420;27;46331;-71
2024/01/11 10:52:37;;;;;;;14.82;6.88;;;19.30;30.60;;;;;;5151285;27;46148;-71
2024/01/11 10:55:05;;;;;;;14.00;7.28;;;19.30;30.30;;;;;;5147675;27;46389;-70
2024/01/11 10:57:32;;;;;;;12.15;6.30;;;19.40;30.30;;;;;;5150333;27;45234;-70
2024/01/11 11:00:02;;;;;;;16.02;6.95;;;19.40;30.30;;;;;;5130355;27;45312;-69
2024/01/11 11:02:29;;;;;;;11.32;6.80;;;19.40;30.40;;;;;;5151671;27;45353;-71
2024/01/11 11:04:57;;;;;;;11.75;6.68;;;19.40;30.40;;;;;;5151659;27;46401;-71
2024/01/11 11:07:24;;;;;;;10.15;7.30;;;19.50;30.60;;;;;;5151050;27;45228;-70
2024/01/11 11:09:51;;;;;;;13.45;7.03;;;19.50;30.00;;;;;;5151245;27;45316;-71
2024/01/11 11:12:19;;;;;;;12.35;6.80;;;19.50;30.00;;;;;;5151180;27;45432;-72
2024/01/11 11:14:47;;;;;;;12.85;6.93;;;19.50;30.20;;;;;;5148283;27;45390;-68
2024/01/11 11:17:15;;;;;;;11.68;6.45;;;19.50;30.00;;;;;;5150129;27;45294;-72
2024/01/11 11:19:42;;;;;;;11.18;6.70;;;19.50;30.80;;;;;;5146973;27;45408;-72
2024/01/11 11:22:09;;;;;;;13.07;6.32;;;19.50;30.30;;;;;;5150192;27;45377;-74
2024/01/11 11:24:36;;;;;;;10.30;6.65;;;19.50;30.20;;;;;;5150107;27;45288;-71
2024/01/11 11:27:03;;;;;;;16.08;7.93;;;19.40;30.20;;;;;;5138936;27;45247;-71
2024/01/11 11:29:30;;;;;;;12.07;7.05;;;19.40;30.10;;;;;;5150064;27;45232;-71
2024/01/11 11:31:57;;;;;;;10.63;6.70;;;19.40;30.20;;;;;;5144343;27;45441;-72
2024/01/11 11:34:44;;;;;;;11.40;7.47;;;19.30;30.20;;;;;;5149148;27;46362;-72
2024/01/11 11:37:10;;;;;;;11.23;7.10;;;19.30;30.30;;;;;;5151185;27;45369;-73
2024/01/11 11:39:37;;;;;;;10.50;6.65;;;19.30;30.30;;;;;;5141747;27;45415;-73
2024/01/11 11:42:05;;;;;;;11.05;6.57;;;19.30;30.30;;;;;;5150870;27;45282;-73
2024/01/11 11:44:32;;;;;;;12.55;7.82;;;19.40;30.20;;;;;;5150474;27;47302;-73
2024/01/11 11:47:18;;;;;;;12.10;7.50;;;19.40;30.20;;;;;;5148720;27;45546;-68
2024/01/11 11:50:06;;;;;;;13.02;6.78;;;19.40;30.20;;;;;;5143215;27;45362;-70
2024/01/11 11:52:34;;;;;;;9.38;6.88;;;19.40;30.20;;;;;;5147719;27;45686;-68
2024/01/11 11:55:01;;;;;;;13.07;7.95;;;19.40;30.30;;;;;;5149904;27;45534;-69
2024/01/11 11:57:28;;;;;;;12.82;6.75;;;19.50;30.70;;;;;;5150136;27;45304;-69
2024/01/11 11:59:55;;;;;;;10.15;6.75;;;19.50;30.00;;;;;;5150089;27;45259;-68
2024/01/11 12:02:22;;;;;;;12.02;6.57;;;19.60;30.00;;;;;;5149657;27;45236;-68
2024/01/11 12:04:49;;;;;;;16.17;7.53;;;19.70;30.00;;;;;;5144665;27;46249;-66
2024/01/11 12:07:18;;;;;;;15.23;8.20;;;19.80;29.80;;;;;;5136076;27;45218;-68
2024/01/11 12:09:45;;;;;;;11.68;7.78;;;19.80;30.50;;;;;;5129706;27;45340;-70
2024/01/11 12:12:14;;;;;;;10.20;6.70;;;19.80;29.90;;;;;;5144361;27;45440;-68
2024/01/11 12:14:42;;;;;;;13.88;6.93;;;19.80;30.00;;;;;;5150250;27;45400;-68
2024/01/11 12:17:09;;;;;;;12.70;7.80;;;19.80;30.30;;;;;;5149873;27;45317;-70
2024/01/11 12:19:36;;;;;;;15.00;9.75;;;19.80;30.00;;;;;;5145068;27;45665;-65
2024/01/11 12:22:03;;;;;;;13.40;9.13;;;19.80;29.90;;;;;;5148531;27;45352;-66
2024/01/11 12:24:33;;;;;;;17.35;8.38;;;19.70;29.70;;;;;;5149214;27;45563;-67
2024/01/11 12:27:00;;;;;;;13.10;9.02;;;19.70;29.70;;;;;;5149370;27;45272;-65
2024/01/11 12:29:29;;;;;;;13.27;8.10;;;19.70;29.70;;;;;;5147675;27;45411;-67
2024/01/11 12:31:59;;;;;;;12.80;8.23;;;19.60;29.90;;;;;;5148961;27;45566;-67
2024/01/11 12:34:26;;;;;;;16.42;8.32;;;19.50;30.00;;;;;;5149887;27;46515;-70
2024/01/11 12:36:54;;;;;;;13.30;8.55;;;19.50;30.10;;;;;;5147096;27;45388;-67
2024/01/11 12:39:22;;;;;;;12.88;8.48;;;19.40;29.90;;;;;;5148808;27;45260;-67
2024/01/11 12:41:50;;;;;;;12.20;9.20;;;19.40;30.00;;;;;;5149322;27;45477;-67